Terminal Aerodrome Forecast
Issued by NWS

Home | Current Version | Previous Version | Text Only | Print | Product List | Glossary On
Versions: 1 2 3 4 5 6 7 8 9 10 11 12 13 14 15 16
000
FTUS41 KBGM 300852 AAA
TAFRME
TAF AMD
KRME 300852Z 3009/3106 10004KT P6SM BKN050
     FM301100 12004KT P6SM OVC050
      TEMPO 3013/3016 -SHRA OVC040
     FM301600 27012G18KT P6SM BKN050
     FM302200 28010KT P6SM FEW060=

USA.gov is the U.S. government's official web portal to all federal, state and local government web resources and services.